sensor_id;sensor_type;location;lat;lon;timestamp;temperature;humidity
13198;DHT22;6664;52.514;13.440;2023-06-14T00:00:26;13.40;14.30
13198;DHT22;6664;52.514;13.440;2023-06-14T00:03:12;13.40;14.70
13198;DHT22;6664;52.514;13.440;2023-06-14T00:06:03;13.40;14.70
13198;DHT22;6664;52.514;13.440;2023-06-14T00:08:48;13.30;14.80
13198;DHT22;6664;52.514;13.440;2023-06-14T00:11:34;13.30;15.30
13198;DHT22;6664;52.514;13.440;2023-06-14T00:14:20;13.30;15.60
13198;DHT22;6664;52.514;13.440;2023-06-14T00:17:07;13.20;15.70
13198;DHT22;6664;52.514;13.440;2023-06-14T00:19:54;13.20;16.00
13198;DHT22;6664;52.514;13.440;2023-06-14T00:22:39;13.20;16.50
13198;DHT22;6664;52.514;13.440;2023-06-14T00:25:27;13.10;16.70
13198;DHT22;6664;52.514;13.440;2023-06-14T00:28:14;13.20;17.00
13198;DHT22;6664;52.514;13.440;2023-06-14T00:31:00;13.10;17.30
13198;DHT22;6664;52.514;13.440;2023-06-14T00:33:48;13.20;17.30
13198;DHT22;6664;52.514;13.440;2023-06-14T00:36:34;13.10;17.70
13198;DHT22;6664;52.514;13.440;2023-06-14T00:39:20;13.10;17.90
13198;DHT22;6664;52.514;13.440;2023-06-14T00:42:05;13.00;18.00
13198;DHT22;6664;52.514;13.440;2023-06-14T00:44:51;13.10;18.30
13198;DHT22;6664;52.514;13.440;2023-06-14T00:47:38;13.10;18.80
13198;DHT22;6664;52.514;13.440;2023-06-14T00:50:26;13.10;19.00
13198;DHT22;6664;52.514;13.440;2023-06-14T00:53:12;13.20;18.90
13198;DHT22;6664;52.514;13.440;2023-06-14T00:56:00;13.10;19.50
13198;DHT22;6664;52.514;13.440;2023-06-14T00:58:47;13.00;19.60
13198;DHT22;6664;52.514;13.440;2023-06-14T01:01:35;12.90;19.80
13198;DHT22;6664;52.514;13.440;2023-06-14T01:04:20;12.90;20.40
13198;DHT22;6664;52.514;13.440;2023-06-14T01:16:14;12.70;21.60
13198;DHT22;6664;52.514;13.440;2023-06-14T01:19:00;12.70;21.90
13198;DHT22;6664;52.514;13.440;2023-06-14T01:21:47;12.70;22.20
13198;DHT22;6664;52.514;13.440;2023-06-14T01:24:36;12.70;22.60
13198;DHT22;6664;52.514;13.440;2023-06-14T01:27:25;12.60;22.90
13198;DHT22;6664;52.514;13.440;2023-06-14T01:30:14;12.70;23.00
13198;DHT22;6664;52.514;13.440;2023-06-14T01:33:00;12.60;23.20
13198;DHT22;6664;52.514;13.440;2023-06-14T01:35:51;12.50;23.30
13198;DHT22;6664;52.514;13.440;2023-06-14T01:38:37;12.50;23.60
13198;DHT22;6664;52.514;13.440;2023-06-14T01:41:23;12.50;24.00
13198;DHT22;6664;52.514;13.440;2023-06-14T01:44:12;12.40;23.90
13198;DHT22;6664;52.514;13.440;2023-06-14T01:46:59;12.40;24.20
13198;DHT22;6664;52.514;13.440;2023-06-14T01:49:47;12.40;24.30
13198;DHT22;6664;52.514;13.440;2023-06-14T01:52:32;12.50;24.60
13198;DHT22;6664;52.514;13.440;2023-06-14T01:55:19;12.50;24.40
13198;DHT22;6664;52.514;13.440;2023-06-14T01:58:06;12.60;24.70
13198;DHT22;6664;52.514;13.440;2023-06-14T02:00:52;12.60;24.30
13198;DHT22;6664;52.514;13.440;2023-06-14T02:03:43;12.50;24.40
13198;DHT22;6664;52.514;13.440;2023-06-14T02:06:30;12.60;24.90
13198;DHT22;6664;52.514;13.440;2023-06-14T02:09:16;12.50;24.90
13198;DHT22;6664;52.514;13.440;2023-06-14T02:12:03;12.50;25.40
13198;DHT22;6664;52.514;13.440;2023-06-14T02:14:48;12.40;25.60
13198;DHT22;6664;52.514;13.440;2023-06-14T02:17:33;12.50;25.80
13198;DHT22;6664;52.514;13.440;2023-06-14T02:20:21;12.50;26.10
13198;DHT22;6664;52.514;13.440;2023-06-14T02:23:07;12.40;26.20
13198;DHT22;6664;52.514;13.440;2023-06-14T02:25:52;12.40;26.50
13198;DHT22;6664;52.514;13.440;2023-06-14T02:28:38;12.50;26.70
13198;DHT22;6664;52.514;13.440;2023-06-14T02:31:28;12.50;26.60
13198;DHT22;6664;52.514;13.440;2023-06-14T02:34:14;12.50;26.80
13198;DHT22;6664;52.514;13.440;2023-06-14T02:37:02;12.50;26.70
13198;DHT22;6664;52.514;13.440;2023-06-14T02:39:48;12.50;26.80
13198;DHT22;6664;52.514;13.440;2023-06-14T02:42:33;12.40;27.20
13198;DHT22;6664;52.514;13.440;2023-06-14T02:45:22;12.40;27.20
13198;DHT22;6664;52.514;13.440;2023-06-14T02:48:08;12.40;27.30
13198;DHT22;6664;52.514;13.440;2023-06-14T02:50:56;12.40;27.30
13198;DHT22;6664;52.514;13.440;2023-06-14T02:53:42;12.40;27.50
13198;DHT22;6664;52.514;13.440;2023-06-14T02:56:30;12.40;27.90
13198;DHT22;6664;52.514;13.440;2023-06-14T02:59:15;12.30;27.80
13198;DHT22;6664;52.514;13.440;2023-06-14T03:02:02;12.30;27.80
13198;DHT22;6664;52.514;13.440;2023-06-14T03:04:48;12.40;27.90
13198;DHT22;6664;52.514;13.440;2023-06-14T03:07:36;12.40;27.90
13198;DHT22;6664;52.514;13.440;2023-06-14T03:10:26;12.40;27.90
13198;DHT22;6664;52.514;13.440;2023-06-14T03:13:17;12.40;28.50
13198;DHT22;6664;52.514;13.440;2023-06-14T03:16:07;12.40;27.90
13198;DHT22;6664;52.514;13.440;2023-06-14T03:18:54;12.40;27.90
13198;DHT22;6664;52.514;13.440;2023-06-14T03:21:41;12.40;28.00
13198;DHT22;6664;52.514;13.440;2023-06-14T03:24:32;12.40;28.00
13198;DHT22;6664;52.514;13.440;2023-06-14T03:27:22;12.40;27.90
13198;DHT22;6664;52.514;13.440;2023-06-14T03:30:08;12.30;27.90
13198;DHT22;6664;52.514;13.440;2023-06-14T03:32:54;12.40;28.10
13198;DHT22;6664;52.514;13.440;2023-06-14T03:35:40;12.40;28.10
13198;DHT22;6664;52.514;13.440;2023-06-14T03:38:26;12.40;27.90
13198;DHT22;6664;52.514;13.440;2023-06-14T03:41:15;12.50;28.00
13198;DHT22;6664;52.514;13.440;2023-06-14T03:44:01;12.40;27.90
13198;DHT22;6664;52.514;13.440;2023-06-14T03:46:48;12.50;28.00
13198;DHT22;6664;52.514;13.440;2023-06-14T03:49:33;12.50;28.00
13198;DHT22;6664;52.514;13.440;2023-06-14T03:52:19;12.50;28.00
13198;DHT22;6664;52.514;13.440;2023-06-14T03:55:05;12.50;28.00
13198;DHT22;6664;52.514;13.440;2023-06-14T03:57:53;12.50;28.00
13198;DHT22;6664;52.514;13.440;2023-06-14T04:00:39;12.60;28.00
13198;DHT22;6664;52.514;13.440;2023-06-14T04:03:26;12.60;28.10
13198;DHT22;6664;52.514;13.440;2023-06-14T04:06:15;12.80;27.80
13198;DHT22;6664;52.514;13.440;2023-06-14T04:09:04;13.00;27.30
13198;DHT22;6664;52.514;13.440;2023-06-14T04:11:53;13.10;26.50
13198;DHT22;6664;52.514;13.440;2023-06-14T04:14:43;13.10;25.90
13198;DHT22;6664;52.514;13.440;2023-06-14T04:17:28;13.20;25.70
13198;DHT22;6664;52.514;13.440;2023-06-14T04:20:14;13.20;25.60
13198;DHT22;6664;52.514;13.440;2023-06-14T04:23:16;13.20;25.50
13198;DHT22;6664;52.514;13.440;2023-06-14T04:26:03;13.30;25.40
13198;DHT22;6664;52.514;13.440;2023-06-14T04:28:50;13.30;25.30
13198;DHT22;6664;52.514;13.440;2023-06-14T04:31:36;13.30;25.50
13198;DHT22;6664;52.514;13.440;2023-06-14T04:34:23;13.30;24.80
13198;DHT22;6664;52.514;13.440;2023-06-14T04:37:11;13.40;24.80
13198;DHT22;6664;52.514;13.440;2023-06-14T04:39:57;13.40;24.40
13198;DHT22;6664;52.514;13.440;2023-06-14T04:42:43;13.50;24.30
13198;DHT22;6664;52.514;13.440;2023-06-14T04:45:31;13.50;24.30
13198;DHT22;6664;52.514;13.440;2023-06-14T04:48:17;13.60;24.00
13198;DHT22;6664;52.514;13.440;2023-06-14T04:51:05;13.60;23.90
13198;DHT22;6664;52.514;13.440;2023-06-14T04:53:51;13.70;23.90
13198;DHT22;6664;52.514;13.440;2023-06-14T04:56:37;13.70;23.90
13198;DHT22;6664;52.514;13.440;2023-06-14T04:59:23;13.80;23.70
13198;DHT22;6664;52.514;13.440;2023-06-14T05:02:08;13.80;23.50
13198;DHT22;6664;52.514;13.440;2023-06-14T05:04:54;13.80;23.40
13198;DHT22;6664;52.514;13.440;2023-06-14T05:07:42;14.00;23.30
13198;DHT22;6664;52.514;13.440;2023-06-14T05:10:28;14.00;22.80
13198;DHT22;6664;52.514;13.440;2023-06-14T05:13:14;14.00;22.90
13198;DHT22;6664;52.514;13.440;2023-06-14T05:15:59;14.10;22.80
13198;DHT22;6664;52.514;13.440;2023-06-14T05:18:46;14.30;22.70
13198;DHT22;6664;52.514;13.440;2023-06-14T05:21:33;14.70;21.60
13198;DHT22;6664;52.514;13.440;2023-06-14T05:24:27;15.10;20.10
13198;DHT22;6664;52.514;13.440;2023-06-14T05:27:16;15.40;19.80
13198;DHT22;6664;52.514;13.440;2023-06-14T05:30:01;15.70;18.00
13198;DHT22;6664;52.514;13.440;2023-06-14T05:32:47;16.00;17.50
13198;DHT22;6664;52.514;13.440;2023-06-14T05:35:35;16.10;16.90
13198;DHT22;6664;52.514;13.440;2023-06-14T05:38:21;16.40;16.00
13198;DHT22;6664;52.514;13.440;2023-06-14T05:41:09;16.40;15.00
13198;DHT22;6664;52.514;13.440;2023-06-14T05:43:55;16.40;15.20
13198;DHT22;6664;52.514;13.440;2023-06-14T05:46:40;16.50;14.50
13198;DHT22;6664;52.514;13.440;2023-06-14T05:49:26;16.80;14.10
13198;DHT22;6664;52.514;13.440;2023-06-14T05:52:12;17.10;13.40
13198;DHT22;6664;52.514;13.440;2023-06-14T05:55:01;17.10;13.30
13198;DHT22;6664;52.514;13.440;2023-06-14T05:57:46;17.20;13.20
13198;DHT22;6664;52.514;13.440;2023-06-14T06:00:33;17.20;12.70
13198;DHT22;6664;52.514;13.440;2023-06-14T06:03:19;17.10;12.40
13198;DHT22;6664;52.514;13.440;2023-06-14T06:06:07;17.10;12.60
13198;DHT22;6664;52.514;13.440;2023-06-14T06:08:53;16.90;12.80
13198;DHT22;6664;52.514;13.440;2023-06-14T06:11:38;16.70;13.10
13198;DHT22;6664;52.514;13.440;2023-06-14T06:14:37;16.60;13.30
13198;DHT22;6664;52.514;13.440;2023-06-14T06:17:23;16.60;13.40
13198;DHT22;6664;52.514;13.440;2023-06-14T06:20:08;16.70;13.20
13198;DHT22;6664;52.514;13.440;2023-06-14T06:22:55;16.80;13.20
13198;DHT22;6664;52.514;13.440;2023-06-14T06:25:40;16.90;13.20
13198;DHT22;6664;52.514;13.440;2023-06-14T06:28:26;17.00;13.20
13198;DHT22;6664;52.514;13.440;2023-06-14T06:31:12;17.10;13.00
13198;DHT22;6664;52.514;13.440;2023-06-14T06:34:00;17.10;12.80
13198;DHT22;6664;52.514;13.440;2023-06-14T06:36:45;17.00;12.90
13198;DHT22;6664;52.514;13.440;2023-06-14T06:39:36;16.60;13.20
13198;DHT22;6664;52.514;13.440;2023-06-14T06:42:25;16.70;13.10
13198;DHT22;6664;52.514;13.440;2023-06-14T06:45:12;16.90;13.20
13198;DHT22;6664;52.514;13.440;2023-06-14T06:48:03;17.10;13.00
13198;DHT22;6664;52.514;13.440;2023-06-14T06:50:48;17.10;12.90
13198;DHT22;6664;52.514;13.440;2023-06-14T06:53:37;17.10;12.90
13198;DHT22;6664;52.514;13.440;2023-06-14T06:56:32;17.40;12.30
13198;DHT22;6664;52.514;13.440;2023-06-14T06:59:20;17.40;11.80
13198;DHT22;6664;52.514;13.440;2023-06-14T07:02:06;17.70;11.40
13198;DHT22;6664;52.514;13.440;2023-06-14T07:04:56;17.90;11.10
13198;DHT22;6664;52.514;13.440;2023-06-14T07:07:44;17.90;10.50
13198;DHT22;6664;52.514;13.440;2023-06-14T07:10:30;18.30;10.00
13198;DHT22;6664;52.514;13.440;2023-06-14T07:13:16;18.60;9.60
13198;DHT22;6664;52.514;13.440;2023-06-14T07:16:04;18.30;9.50
13198;DHT22;6664;52.514;13.440;2023-06-14T07:18:51;18.60;9.30
13198;DHT22;6664;52.514;13.440;2023-06-14T07:21:37;18.50;9.40
13198;DHT22;6664;52.514;13.440;2023-06-14T07:24:24;18.80;8.50
13198;DHT22;6664;52.514;13.440;2023-06-14T07:27:10;18.60;8.60
13198;DHT22;6664;52.514;13.440;2023-06-14T07:30:02;18.90;8.50
13198;DHT22;6664;52.514;13.440;2023-06-14T07:32:55;19.30;7.80
13198;DHT22;6664;52.514;13.440;2023-06-14T07:35:43;19.80;6.90
13198;DHT22;6664;52.514;13.440;2023-06-14T07:38:28;20.10;6.00
13198;DHT22;6664;52.514;13.440;2023-06-14T07:41:14;20.20;6.10
13198;DHT22;6664;52.514;13.440;2023-06-14T07:44:02;20.20;5.30
13198;DHT22;6664;52.514;13.440;2023-06-14T07:46:48;20.10;5.80
13198;DHT22;6664;52.514;13.440;2023-06-14T07:49:36;20.20;4.80
13198;DHT22;6664;52.514;13.440;2023-06-14T07:52:21;19.90;5.30
13198;DHT22;6664;52.514;13.440;2023-06-14T07:55:12;19.90;5.50
13198;DHT22;6664;52.514;13.440;2023-06-14T07:58:01;20.00;5.00
13198;DHT22;6664;52.514;13.440;2023-06-14T08:00:50;20.10;4.90
13198;DHT22;6664;52.514;13.440;2023-06-14T08:03:36;20.20;4.80
13198;DHT22;6664;52.514;13.440;2023-06-14T08:06:22;20.40;4.70
13198;DHT22;6664;52.514;13.440;2023-06-14T08:09:10;20.20;4.20
13198;DHT22;6664;52.514;13.440;2023-06-14T08:11:56;19.50;5.40
13198;DHT22;6664;52.514;13.440;2023-06-14T08:14:42;19.30;5.40
13198;DHT22;6664;52.514;13.440;2023-06-14T08:17:28;19.60;5.60
13198;DHT22;6664;52.514;13.440;2023-06-14T08:20:16;20.00;5.20
13198;DHT22;6664;52.514;13.440;2023-06-14T08:23:03;20.10;3.80
13198;DHT22;6664;52.514;13.440;2023-06-14T08:25:52;20.50;3.60
13198;DHT22;6664;52.514;13.440;2023-06-14T08:28:38;20.80;2.90
13198;DHT22;6664;52.514;13.440;2023-06-14T08:31:24;20.80;2.40
13198;DHT22;6664;52.514;13.440;2023-06-14T08:34:11;20.70;2.30
13198;DHT22;6664;52.514;13.440;2023-06-14T08:36:57;20.30;3.10
13198;DHT22;6664;52.514;13.440;2023-06-14T08:39:43;19.80;3.90
13198;DHT22;6664;52.514;13.440;2023-06-14T08:42:30;19.50;4.10
13198;DHT22;6664;52.514;13.440;2023-06-14T08:45:18;19.70;4.40
13198;DHT22;6664;52.514;13.440;2023-06-14T08:48:05;20.10;4.00
13198;DHT22;6664;52.514;13.440;2023-06-14T08:50:57;20.30;1.50
13198;DHT22;6664;52.514;13.440;2023-06-14T08:53:52;20.80;1.70
13198;DHT22;6664;52.514;13.440;2023-06-14T08:56:38;21.20;1.00
13198;DHT22;6664;52.514;13.440;2023-06-14T08:59:27;21.60;1.00
13198;DHT22;6664;52.514;13.440;2023-06-14T09:02:13;21.80;1.00
13198;DHT22;6664;52.514;13.440;2023-06-14T09:05:02;22.60;1.00
13198;DHT22;6664;52.514;13.440;2023-06-14T09:07:49;23.30;1.00
13198;DHT22;6664;52.514;13.440;2023-06-14T09:10:38;23.60;1.00
13198;DHT22;6664;52.514;13.440;2023-06-14T09:13:26;23.60;1.00
13198;DHT22;6664;52.514;13.440;2023-06-14T09:16:16;23.10;1.00
13198;DHT22;6664;52.514;13.440;2023-06-14T09:19:02;22.70;1.00
13198;DHT22;6664;52.514;13.440;2023-06-14T09:21:48;23.30;1.00
13198;DHT22;6664;52.514;13.440;2023-06-14T09:24:36;23.40;1.00
13198;DHT22;6664;52.514;13.440;2023-06-14T09:27:22;23.50;1.00
13198;DHT22;6664;52.514;13.440;2023-06-14T09:30:11;23.50;1.00
13198;DHT22;6664;52.514;13.440;2023-06-14T09:32:57;23.50;1.00
13198;DHT22;6664;52.514;13.440;2023-06-14T09:35:50;23.60;1.00
13198;DHT22;6664;52.514;13.440;2023-06-14T09:38:36;23.80;1.00
13198;DHT22;6664;52.514;13.440;2023-06-14T09:41:31;24.00;1.00
13198;DHT22;6664;52.514;13.440;2023-06-14T09:44:18;24.40;1.00
13198;DHT22;6664;52.514;13.440;2023-06-14T09:47:09;24.90;1.00
13198;DHT22;6664;52.514;13.440;2023-06-14T09:49:55;24.20;1.00
13198;DHT22;6664;52.514;13.440;2023-06-14T09:52:46;24.80;1.00
13198;DHT22;6664;52.514;13.440;2023-06-14T09:55:35;24.90;1.00
13198;DHT22;6664;52.514;13.440;2023-06-14T09:58:26;24.90;1.00
13198;DHT22;6664;52.514;13.440;2023-06-14T10:01:14;25.30;1.00
13198;DHT22;6664;52.514;13.440;2023-06-14T10:04:05;25.50;1.00
13198;DHT22;6664;52.514;13.440;2023-06-14T10:06:56;25.50;1.00
13198;DHT22;6664;52.514;13.440;2023-06-14T10:09:42;25.40;1.00
13198;DHT22;6664;52.514;13.440;2023-06-14T10:12:34;24.80;1.00
13198;DHT22;6664;52.514;13.440;2023-06-14T10:15:35;24.50;1.00
13198;DHT22;6664;52.514;13.440;2023-06-14T10:18:48;24.20;1.00
13198;DHT22;6664;52.514;13.440;2023-06-14T10:24:40;24.00;1.00
13198;DHT22;6664;52.514;13.440;2023-06-14T10:27:26;24.10;1.00
13198;DHT22;6664;52.514;13.440;2023-06-14T10:30:15;24.00;1.00
13198;DHT22;6664;52.514;13.440;2023-06-14T10:33:05;24.00;1.00
13198;DHT22;6664;52.514;13.440;2023-06-14T10:39:15;23.90;1.00
13198;DHT22;6664;52.514;13.440;2023-06-14T10:42:08;24.00;1.00
13198;DHT22;6664;52.514;13.440;2023-06-14T10:44:57;24.40;1.00
13198;DHT22;6664;52.514;13.440;2023-06-14T10:47:49;24.50;1.00
13198;DHT22;6664;52.514;13.440;2023-06-14T10:50:42;24.10;1.00
13198;DHT22;6664;52.514;13.440;2023-06-14T10:53:42;24.20;1.00
13198;DHT22;6664;52.514;13.440;2023-06-14T10:56:29;24.90;1.00
13198;DHT22;6664;52.514;13.440;2023-06-14T10:59:18;25.40;1.00
13198;DHT22;6664;52.514;13.440;2023-06-14T11:05:08;25.70;1.00
13198;DHT22;6664;52.514;13.440;2023-06-14T11:11:15;26.80;1.00
13198;DHT22;6664;52.514;13.440;2023-06-14T11:14:01;27.00;1.00
13198;DHT22;6664;52.514;13.440;2023-06-14T11:16:51;27.00;1.00
13198;DHT22;6664;52.514;13.440;2023-06-14T11:19:37;26.40;1.00
13198;DHT22;6664;52.514;13.440;2023-06-14T11:22:23;26.70;1.00
13198;DHT22;6664;52.514;13.440;2023-06-14T11:25:12;27.00;1.00
13198;DHT22;6664;52.514;13.440;2023-06-14T11:27:59;27.10;1.00
13198;DHT22;6664;52.514;13.440;2023-06-14T11:30:46;26.20;1.00
13198;DHT22;6664;52.514;13.440;2023-06-14T11:33:34;26.20;1.00
13198;DHT22;6664;52.514;13.440;2023-06-14T11:36:28;26.80;1.00
13198;DHT22;6664;52.514;13.440;2023-06-14T11:39:24;26.70;1.00
13198;DHT22;6664;52.514;13.440;2023-06-14T11:42:16;27.30;1.00
13198;DHT22;6664;52.514;13.440;2023-06-14T11:45:02;27.40;1.00
13198;DHT22;6664;52.514;13.440;2023-06-14T11:47:56;27.60;1.00
13198;DHT22;6664;52.514;13.440;2023-06-14T11:50:41;27.50;1.00
13198;DHT22;6664;52.514;13.440;2023-06-14T11:53:30;27.50;1.00
13198;DHT22;6664;52.514;13.440;2023-06-14T11:56:16;27.60;1.00
13198;DHT22;6664;52.514;13.440;2023-06-14T11:59:05;28.30;1.00
13198;DHT22;6664;52.514;13.440;2023-06-14T12:01:55;29.10;1.00
13198;DHT22;6664;52.514;13.440;2023-06-14T12:04:44;29.60;1.00
13198;DHT22;6664;52.514;13.440;2023-06-14T12:07:39;29.90;1.00
13198;DHT22;6664;52.514;13.440;2023-06-14T12:10:30;29.80;1.00
13198;DHT22;6664;52.514;13.440;2023-06-14T12:13:25;29.90;1.00
13198;DHT22;6664;52.514;13.440;2023-06-14T12:16:12;29.20;1.00
13198;DHT22;6664;52.514;13.440;2023-06-14T12:19:00;28.60;1.00
13198;DHT22;6664;52.514;13.440;2023-06-14T12:21:51;29.40;1.00
13198;DHT22;6664;52.514;13.440;2023-06-14T12:24:45;29.40;1.00
13198;DHT22;6664;52.514;13.440;2023-06-14T12:27:31;30.10;1.00
13198;DHT22;6664;52.514;13.440;2023-06-14T12:30:17;31.70;1.00
13198;DHT22;6664;52.514;13.440;2023-06-14T12:33:03;35.70;1.00
13198;DHT22;6664;52.514;13.440;2023-06-14T12:35:50;37.20;1.00
13198;DHT22;6664;52.514;13.440;2023-06-14T12:38:36;39.70;1.00
13198;DHT22;6664;52.514;13.440;2023-06-14T12:41:22;41.70;1.00
13198;DHT22;6664;52.514;13.440;2023-06-14T12:44:08;42.90;1.00
13198;DHT22;6664;52.514;13.440;2023-06-14T12:46:54;43.80;1.00
13198;DHT22;6664;52.514;13.440;2023-06-14T12:49:42;42.50;1.00
13198;DHT22;6664;52.514;13.440;2023-06-14T12:52:28;41.70;1.00
13198;DHT22;6664;52.514;13.440;2023-06-14T12:55:13;43.70;1.00
13198;DHT22;6664;52.514;13.440;2023-06-14T12:58:00;46.90;1.00
13198;DHT22;6664;52.514;13.440;2023-06-14T13:00:47;49.30;1.00
13198;DHT22;6664;52.514;13.440;2023-06-14T13:03:33;50.60;1.00
13198;DHT22;6664;52.514;13.440;2023-06-14T13:06:23;53.90;1.00
13198;DHT22;6664;52.514;13.440;2023-06-14T13:09:10;56.00;1.00
13198;DHT22;6664;52.514;13.440;2023-06-14T13:11:56;57.50;1.00
13198;DHT22;6664;52.514;13.440;2023-06-14T13:14:46;57.10;1.00
13198;DHT22;6664;52.514;13.440;2023-06-14T13:17:32;53.30;1.00
13198;DHT22;6664;52.514;13.440;2023-06-14T13:20:23;45.70;1.00
13198;DHT22;6664;52.514;13.440;2023-06-14T13:23:10;42.20;1.00
13198;DHT22;6664;52.514;13.440;2023-06-14T13:25:55;41.40;1.00
13198;DHT22;6664;52.514;13.440;2023-06-14T13:28:41;41.30;1.00
13198;DHT22;6664;52.514;13.440;2023-06-14T13:31:26;39.60;1.00
13198;DHT22;6664;52.514;13.440;2023-06-14T13:34:12;47.00;1.00
13198;DHT22;6664;52.514;13.440;2023-06-14T13:37:00;47.40;1.00
13198;DHT22;6664;52.514;13.440;2023-06-14T13:39:46;46.40;1.00
13198;DHT22;6664;52.514;13.440;2023-06-14T13:42:34;47.40;1.00
13198;DHT22;6664;52.514;13.440;2023-06-14T13:45:22;45.70;1.00
13198;DHT22;6664;52.514;13.440;2023-06-14T13:48:08;47.50;1.00
13198;DHT22;6664;52.514;13.440;2023-06-14T13:50:53;50.90;1.00
13198;DHT22;6664;52.514;13.440;2023-06-14T13:53:39;53.80;1.00
13198;DHT22;6664;52.514;13.440;2023-06-14T13:56:24;48.30;1.00
13198;DHT22;6664;52.514;13.440;2023-06-14T13:59:13;46.20;1.00
13198;DHT22;6664;52.514;13.440;2023-06-14T14:01:58;43.60;1.00
13198;DHT22;6664;52.514;13.440;2023-06-14T14:04:44;47.80;1.00
13198;DHT22;6664;52.514;13.440;2023-06-14T14:07:36;51.30;1.00
13198;DHT22;6664;52.514;13.440;2023-06-14T14:10:28;48.50;1.00
13198;DHT22;6664;52.514;13.440;2023-06-14T14:13:13;42.60;1.00
13198;DHT22;6664;52.514;13.440;2023-06-14T14:15:59;39.10;1.00
13198;DHT22;6664;52.514;13.440;2023-06-14T14:18:46;38.40;1.00
13198;DHT22;6664;52.514;13.440;2023-06-14T14:21:31;35.80;1.00
13198;DHT22;6664;52.514;13.440;2023-06-14T14:24:17;34.00;1.00
13198;DHT22;6664;52.514;13.440;2023-06-14T14:27:03;32.60;1.00
13198;DHT22;6664;52.514;13.440;2023-06-14T14:29:51;33.00;1.00
13198;DHT22;6664;52.514;13.440;2023-06-14T14:32:37;32.10;1.00
13198;DHT22;6664;52.514;13.440;2023-06-14T14:35:23;31.90;1.00
13198;DHT22;6664;52.514;13.440;2023-06-14T14:38:11;34.30;1.00
13198;DHT22;6664;52.514;13.440;2023-06-14T14:40:57;33.20;1.00
13198;DHT22;6664;52.514;13.440;2023-06-14T14:43:43;31.60;1.00
13198;DHT22;6664;52.514;13.440;2023-06-14T14:46:29;30.30;1.00
13198;DHT22;6664;52.514;13.440;2023-06-14T14:49:15;29.30;1.00
13198;DHT22;6664;52.514;13.440;2023-06-14T14:52:02;28.20;1.00
13198;DHT22;6664;52.514;13.440;2023-06-14T14:55:03;27.50;1.00
13198;DHT22;6664;52.514;13.440;2023-06-14T14:57:49;26.50;1.00
13198;DHT22;6664;52.514;13.440;2023-06-14T15:00:35;25.60;1.00
13198;DHT22;6664;52.514;13.440;2023-06-14T15:03:21;25.10;1.00
13198;DHT22;6664;52.514;13.440;2023-06-14T15:06:08;24.80;1.00
13198;DHT22;6664;52.514;13.440;2023-06-14T15:08:57;24.50;1.00
13198;DHT22;6664;52.514;13.440;2023-06-14T15:11:42;24.00;1.00
13198;DHT22;6664;52.514;13.440;2023-06-14T15:14:30;23.50;1.00
13198;DHT22;6664;52.514;13.440;2023-06-14T15:17:16;23.30;1.00
13198;DHT22;6664;52.514;13.440;2023-06-14T15:20:02;23.10;1.00
13198;DHT22;6664;52.514;13.440;2023-06-14T15:22:48;23.00;1.00
13198;DHT22;6664;52.514;13.440;2023-06-14T15:25:36;22.90;1.00
13198;DHT22;6664;52.514;13.440;2023-06-14T15:28:24;22.90;1.00
13198;DHT22;6664;52.514;13.440;2023-06-14T15:31:16;23.00;1.00
13198;DHT22;6664;52.514;13.440;2023-06-14T15:34:01;23.30;1.00
13198;DHT22;6664;52.514;13.440;2023-06-14T15:36:47;23.50;1.00
13198;DHT22;6664;52.514;13.440;2023-06-14T15:39:34;23.90;1.00
13198;DHT22;6664;52.514;13.440;2023-06-14T15:42:20;24.50;1.00
13198;DHT22;6664;52.514;13.440;2023-06-14T15:45:06;25.10;1.00
13198;DHT22;6664;52.514;13.440;2023-06-14T15:47:52;25.80;1.00
13198;DHT22;6664;52.514;13.440;2023-06-14T15:50:38;26.60;1.00
13198;DHT22;6664;52.514;13.440;2023-06-14T15:53:23;26.30;1.00
13198;DHT22;6664;52.514;13.440;2023-06-14T15:56:09;25.80;1.00
13198;DHT22;6664;52.514;13.440;2023-06-14T15:58:58;25.30;1.00
13198;DHT22;6664;52.514;13.440;2023-06-14T16:01:46;24.80;1.00
13198;DHT22;6664;52.514;13.440;2023-06-14T16:04:32;24.50;1.00
13198;DHT22;6664;52.514;13.440;2023-06-14T16:07:18;23.90;1.00
13198;DHT22;6664;52.514;13.440;2023-06-14T16:10:04;23.60;1.00
13198;DHT22;6664;52.514;13.440;2023-06-14T16:12:51;23.40;1.00
13198;DHT22;6664;52.514;13.440;2023-06-14T16:15:37;23.50;1.00
13198;DHT22;6664;52.514;13.440;2023-06-14T16:18:23;23.60;1.00
13198;DHT22;6664;52.514;13.440;2023-06-14T16:21:08;23.30;1.00
13198;DHT22;6664;52.514;13.440;2023-06-14T16:23:56;23.10;1.00
13198;DHT22;6664;52.514;13.440;2023-06-14T16:26:45;22.90;1.00
13198;DHT22;6664;52.514;13.440;2023-06-14T16:29:33;22.90;1.00
13198;DHT22;6664;52.514;13.440;2023-06-14T16:32:20;22.90;1.00
13198;DHT22;6664;52.514;13.440;2023-06-14T16:35:08;22.80;1.00
13198;DHT22;6664;52.514;13.440;2023-06-14T16:37:53;22.80;1.00
13198;DHT22;6664;52.514;13.440;2023-06-14T16:40:39;22.80;1.00
13198;DHT22;6664;52.514;13.440;2023-06-14T16:43:32;22.90;1.00
13198;DHT22;6664;52.514;13.440;2023-06-14T16:46:29;23.10;1.00
13198;DHT22;6664;52.514;13.440;2023-06-14T16:49:15;23.10;1.00
13198;DHT22;6664;52.514;13.440;2023-06-14T16:52:01;22.70;1.00
13198;DHT22;6664;52.514;13.440;2023-06-14T16:54:49;22.50;1.00
13198;DHT22;6664;52.514;13.440;2023-06-14T16:57:39;22.50;1.00
13198;DHT22;6664;52.514;13.440;2023-06-14T17:00:27;22.40;1.00
13198;DHT22;6664;52.514;13.440;2023-06-14T17:03:13;22.20;1.00
13198;DHT22;6664;52.514;13.440;2023-06-14T17:06:00;22.00;1.00
13198;DHT22;6664;52.514;13.440;2023-06-14T17:08:46;21.80;1.00
13198;DHT22;6664;52.514;13.440;2023-06-14T17:11:38;21.60;1.00
13198;DHT22;6664;52.514;13.440;2023-06-14T17:14:24;21.50;1.00
13198;DHT22;6664;52.514;13.440;2023-06-14T17:17:09;21.50;1.00
13198;DHT22;6664;52.514;13.440;2023-06-14T17:19:55;21.40;1.00
13198;DHT22;6664;52.514;13.440;2023-06-14T17:22:40;21.30;1.00
13198;DHT22;6664;52.514;13.440;2023-06-14T17:25:26;21.20;1.00
13198;DHT22;6664;52.514;13.440;2023-06-14T17:28:12;21.10;1.00
13198;DHT22;6664;52.514;13.440;2023-06-14T17:30:57;21.10;1.00
13198;DHT22;6664;52.514;13.440;2023-06-14T17:33:43;21.00;1.00
13198;DHT22;6664;52.514;13.440;2023-06-14T17:36:32;21.00;1.00
13198;DHT22;6664;52.514;13.440;2023-06-14T17:39:18;21.00;1.00
13198;DHT22;6664;52.514;13.440;2023-06-14T17:42:04;20.90;1.00
13198;DHT22;6664;52.514;13.440;2023-06-14T17:44:52;20.90;1.00
13198;DHT22;6664;52.514;13.440;2023-06-14T17:47:40;20.90;1.00
13198;DHT22;6664;52.514;13.440;2023-06-14T17:50:26;20.90;1.00
13198;DHT22;6664;52.514;13.440;2023-06-14T17:53:12;20.80;1.00
13198;DHT22;6664;52.514;13.440;2023-06-14T17:56:02;20.80;1.00
13198;DHT22;6664;52.514;13.440;2023-06-14T17:58:54;20.70;1.00
13198;DHT22;6664;52.514;13.440;2023-06-14T18:01:45;20.70;1.00
13198;DHT22;6664;52.514;13.440;2023-06-14T18:04:31;20.70;1.00
13198;DHT22;6664;52.514;13.440;2023-06-14T18:07:19;20.60;1.00
13198;DHT22;6664;52.514;13.440;2023-06-14T18:10:10;20.60;1.00